sensor_id;sensor_type;location;lat;lon;timestamp;temperature;humidity
1453;DHT22;720;47.738;7.998;2023-07-09T00:00:54;17.00;99.90
1453;DHT22;720;47.738;7.998;2023-07-09T00:03:20;16.90;99.90
1453;DHT22;720;47.738;7.998;2023-07-09T00:05:48;16.80;99.90
1453;DHT22;720;47.738;7.998;2023-07-09T00:08:30;16.80;99.90
1453;DHT22;720;47.738;7.998;2023-07-09T00:10:57;16.80;99.90
1453;DHT22;720;47.738;7.998;2023-07-09T00:13:24;16.80;99.90
1453;DHT22;720;47.738;7.998;2023-07-09T00:15:50;16.90;99.90
1453;DHT22;720;47.738;7.998;2023-07-09T00:18:16;16.90;99.90
1453;DHT22;720;47.738;7.998;2023-07-09T00:20:42;16.70;99.90
1453;DHT22;720;47.738;7.998;2023-07-09T00:23:09;16.90;99.90
1453;DHT22;720;47.738;7.998;2023-07-09T00:25:41;16.90;99.90
1453;DHT22;720;47.738;7.998;2023-07-09T00:28:19;16.90;99.90
1453;DHT22;720;47.738;7.998;2023-07-09T00:30:46;17.00;99.90
1453;DHT22;720;47.738;7.998;2023-07-09T00:33:16;17.00;99.90
1453;DHT22;720;47.738;7.998;2023-07-09T00:35:45;17.00;99.90
1453;DHT22;720;47.738;7.998;2023-07-09T00:38:20;16.80;99.90
1453;DHT22;720;47.738;7.998;2023-07-09T00:41:12;16.70;99.90
1453;DHT22;720;47.738;7.998;2023-07-09T00:43:43;16.70;99.90
1453;DHT22;720;47.738;7.998;2023-07-09T00:48:51;16.80;99.90
1453;DHT22;720;47.738;7.998;2023-07-09T00:51:21;16.90;99.90
1453;DHT22;720;47.738;7.998;2023-07-09T00:53:50;16.80;99.90
1453;DHT22;720;47.738;7.998;2023-07-09T00:56:25;16.90;99.90
1453;DHT22;720;47.738;7.998;2023-07-09T00:58:55;16.90;99.90
1453;DHT22;720;47.738;7.998;2023-07-09T01:01:21;16.90;99.90
1453;DHT22;720;47.738;7.998;2023-07-09T01:03:54;16.80;99.90
1453;DHT22;720;47.738;7.998;2023-07-09T01:06:28;16.70;99.90
1453;DHT22;720;47.738;7.998;2023-07-09T01:08:58;16.70;99.90
1453;DHT22;720;47.738;7.998;2023-07-09T01:11:26;16.80;99.90
1453;DHT22;720;47.738;7.998;2023-07-09T01:13:55;16.80;99.90
1453;DHT22;720;47.738;7.998;2023-07-09T01:16:24;16.80;99.90
1453;DHT22;720;47.738;7.998;2023-07-09T01:18:51;16.80;99.90
1453;DHT22;720;47.738;7.998;2023-07-09T01:21:17;16.80;99.90
1453;DHT22;720;47.738;7.998;2023-07-09T01:23:44;16.80;99.90
1453;DHT22;720;47.738;7.998;2023-07-09T01:26:12;16.80;99.90
1453;DHT22;720;47.738;7.998;2023-07-09T01:28:39;16.80;99.90
1453;DHT22;720;47.738;7.998;2023-07-09T01:31:10;16.90;99.90
1453;DHT22;720;47.738;7.998;2023-07-09T01:33:37;16.80;99.90
1453;DHT22;720;47.738;7.998;2023-07-09T01:36:05;16.80;99.90
1453;DHT22;720;47.738;7.998;2023-07-09T01:38:33;16.60;99.90
1453;DHT22;720;47.738;7.998;2023-07-09T01:40:59;16.60;99.90
1453;DHT22;720;47.738;7.998;2023-07-09T01:43:25;16.60;99.90
1453;DHT22;720;47.738;7.998;2023-07-09T01:45:51;16.70;99.90
1453;DHT22;720;47.738;7.998;2023-07-09T01:48:18;16.70;99.90
1453;DHT22;720;47.738;7.998;2023-07-09T01:50:46;16.90;99.90
1453;DHT22;720;47.738;7.998;2023-07-09T01:53:16;16.80;99.90
1453;DHT22;720;47.738;7.998;2023-07-09T01:55:43;16.80;99.90
1453;DHT22;720;47.738;7.998;2023-07-09T01:58:09;16.70;99.90
1453;DHT22;720;47.738;7.998;2023-07-09T02:00:37;16.70;99.90
1453;DHT22;720;47.738;7.998;2023-07-09T02:03:03;16.80;99.90
1453;DHT22;720;47.738;7.998;2023-07-09T02:05:35;16.80;99.90
1453;DHT22;720;47.738;7.998;2023-07-09T02:08:01;16.70;99.90
1453;DHT22;720;47.738;7.998;2023-07-09T02:10:26;16.60;99.90
1453;DHT22;720;47.738;7.998;2023-07-09T02:12:52;16.50;99.90
1453;DHT22;720;47.738;7.998;2023-07-09T02:15:17;16.50;99.90
1453;DHT22;720;47.738;7.998;2023-07-09T02:17:43;16.60;99.90
1453;DHT22;720;47.738;7.998;2023-07-09T02:20:10;16.60;99.90
1453;DHT22;720;47.738;7.998;2023-07-09T02:22:37;16.70;99.90
1453;DHT22;720;47.738;7.998;2023-07-09T02:25:04;16.70;99.90
1453;DHT22;720;47.738;7.998;2023-07-09T02:27:31;16.70;99.90
1453;DHT22;720;47.738;7.998;2023-07-09T02:29:57;16.60;99.90
1453;DHT22;720;47.738;7.998;2023-07-09T02:32:25;16.50;99.90
1453;DHT22;720;47.738;7.998;2023-07-09T02:34:52;16.50;99.90
1453;DHT22;720;47.738;7.998;2023-07-09T02:37:24;16.50;99.90
1453;DHT22;720;47.738;7.998;2023-07-09T02:39:51;16.40;99.90
1453;DHT22;720;47.738;7.998;2023-07-09T02:42:18;16.50;99.90
1453;DHT22;720;47.738;7.998;2023-07-09T02:44:45;16.50;99.90
1453;DHT22;720;47.738;7.998;2023-07-09T02:47:11;16.60;99.90
1453;DHT22;720;47.738;7.998;2023-07-09T02:49:37;16.60;99.90
1453;DHT22;720;47.738;7.998;2023-07-09T02:52:04;16.50;99.90
1453;DHT22;720;47.738;7.998;2023-07-09T02:54:30;16.50;99.90
1453;DHT22;720;47.738;7.998;2023-07-09T02:56:56;16.50;99.90
1453;DHT22;720;47.738;7.998;2023-07-09T02:59:21;16.50;99.90
1453;DHT22;720;47.738;7.998;2023-07-09T03:01:49;16.50;99.90
1453;DHT22;720;47.738;7.998;2023-07-09T03:04:15;16.40;99.90
1453;DHT22;720;47.738;7.998;2023-07-09T03:06:40;16.50;99.90
1453;DHT22;720;47.738;7.998;2023-07-09T03:09:06;16.60;99.90
1453;DHT22;720;47.738;7.998;2023-07-09T03:11:34;16.50;99.90
1453;DHT22;720;47.738;7.998;2023-07-09T03:14:00;16.50;99.90
1453;DHT22;720;47.738;7.998;2023-07-09T03:16:31;16.40;99.90
1453;DHT22;720;47.738;7.998;2023-07-09T03:18:57;16.40;99.90
1453;DHT22;720;47.738;7.998;2023-07-09T03:21:25;16.40;99.90
1453;DHT22;720;47.738;7.998;2023-07-09T03:23:52;16.40;99.90
1453;DHT22;720;47.738;7.998;2023-07-09T03:26:17;16.50;99.90
1453;DHT22;720;47.738;7.998;2023-07-09T03:28:43;16.40;99.90
1453;DHT22;720;47.738;7.998;2023-07-09T03:31:09;16.40;99.90
1453;DHT22;720;47.738;7.998;2023-07-09T03:33:34;16.50;99.90
1453;DHT22;720;47.738;7.998;2023-07-09T03:36:00;16.50;99.90
1453;DHT22;720;47.738;7.998;2023-07-09T03:38:26;16.60;99.90
1453;DHT22;720;47.738;7.998;2023-07-09T03:40:54;16.60;99.90
1453;DHT22;720;47.738;7.998;2023-07-09T03:43:21;16.50;99.90
1453;DHT22;720;47.738;7.998;2023-07-09T03:45:47;16.50;99.90
1453;DHT22;720;47.738;7.998;2023-07-09T03:48:15;16.50;99.90
1453;DHT22;720;47.738;7.998;2023-07-09T03:50:43;16.50;99.90
1453;DHT22;720;47.738;7.998;2023-07-09T03:53:09;16.50;99.90
1453;DHT22;720;47.738;7.998;2023-07-09T03:55:35;16.50;99.90
1453;DHT22;720;47.738;7.998;2023-07-09T03:58:00;16.40;99.90
1453;DHT22;720;47.738;7.998;2023-07-09T04:00:28;16.40;99.90
1453;DHT22;720;47.738;7.998;2023-07-09T04:02:54;16.40;99.90
1453;DHT22;720;47.738;7.998;2023-07-09T04:05:22;16.40;99.90
1453;DHT22;720;47.738;7.998;2023-07-09T04:07:48;16.40;99.90
1453;DHT22;720;47.738;7.998;2023-07-09T04:10:14;16.60;99.90
1453;DHT22;720;47.738;7.998;2023-07-09T04:12:40;16.70;99.90
1453;DHT22;720;47.738;7.998;2023-07-09T04:15:06;16.70;99.90
1453;DHT22;720;47.738;7.998;2023-07-09T04:17:32;16.70;99.90
1453;DHT22;720;47.738;7.998;2023-07-09T04:19:58;16.70;99.90
1453;DHT22;720;47.738;7.998;2023-07-09T04:22:24;16.70;99.90
1453;DHT22;720;47.738;7.998;2023-07-09T04:24:50;16.80;99.90
1453;DHT22;720;47.738;7.998;2023-07-09T04:27:16;16.70;99.90
1453;DHT22;720;47.738;7.998;2023-07-09T04:29:42;16.70;99.90
1453;DHT22;720;47.738;7.998;2023-07-09T04:32:12;16.80;99.90
1453;DHT22;720;47.738;7.998;2023-07-09T04:34:38;16.80;99.90
1453;DHT22;720;47.738;7.998;2023-07-09T04:37:08;17.00;99.90
1453;DHT22;720;47.738;7.998;2023-07-09T04:39:35;17.20;99.90
1453;DHT22;720;47.738;7.998;2023-07-09T04:42:01;17.60;99.90
1453;DHT22;720;47.738;7.998;2023-07-09T04:44:27;18.00;99.90
1453;DHT22;720;47.738;7.998;2023-07-09T04:46:52;18.70;99.90
1453;DHT22;720;47.738;7.998;2023-07-09T04:49:18;19.30;99.90
1453;DHT22;720;47.738;7.998;2023-07-09T04:51:43;19.70;99.90
1453;DHT22;720;47.738;7.998;2023-07-09T04:54:09;19.80;99.90
1453;DHT22;720;47.738;7.998;2023-07-09T04:56:35;19.90;99.90
1453;DHT22;720;47.738;7.998;2023-07-09T04:59:02;19.80;99.90
1453;DHT22;720;47.738;7.998;2023-07-09T05:01:27;19.80;99.90
1453;DHT22;720;47.738;7.998;2023-07-09T05:03:54;19.80;99.90
1453;DHT22;720;47.738;7.998;2023-07-09T05:06:20;19.90;99.90
1453;DHT22;720;47.738;7.998;2023-07-09T05:08:47;20.00;99.90
1453;DHT22;720;47.738;7.998;2023-07-09T05:11:14;20.20;99.90
1453;DHT22;720;47.738;7.998;2023-07-09T05:13:40;20.60;99.90
1453;DHT22;720;47.738;7.998;2023-07-09T05:16:06;20.80;99.90
1453;DHT22;720;47.738;7.998;2023-07-09T05:18:32;21.00;99.90
1453;DHT22;720;47.738;7.998;2023-07-09T05:20:57;21.00;99.90
1453;DHT22;720;47.738;7.998;2023-07-09T05:23:24;21.20;99.90
1453;DHT22;720;47.738;7.998;2023-07-09T05:25:56;21.30;99.90
1453;DHT22;720;47.738;7.998;2023-07-09T05:28:23;21.30;99.90
1453;DHT22;720;47.738;7.998;2023-07-09T05:30:48;21.40;99.90
1453;DHT22;720;47.738;7.998;2023-07-09T05:33:14;21.50;99.90
1453;DHT22;720;47.738;7.998;2023-07-09T05:35:39;21.60;99.90
1453;DHT22;720;47.738;7.998;2023-07-09T05:38:07;21.70;99.90
1453;DHT22;720;47.738;7.998;2023-07-09T05:40:33;21.60;99.90
1453;DHT22;720;47.738;7.998;2023-07-09T05:42:58;21.80;99.90
1453;DHT22;720;47.738;7.998;2023-07-09T05:45:24;21.70;99.50
1453;DHT22;720;47.738;7.998;2023-07-09T05:47:49;21.80;99.90
1453;DHT22;720;47.738;7.998;2023-07-09T05:50:15;22.00;99.90
1453;DHT22;720;47.738;7.998;2023-07-09T05:52:41;22.20;99.90
1453;DHT22;720;47.738;7.998;2023-07-09T05:55:06;22.30;99.90
1453;DHT22;720;47.738;7.998;2023-07-09T05:57:32;22.50;99.90
1453;DHT22;720;47.738;7.998;2023-07-09T05:59:58;22.60;99.90
1453;DHT22;720;47.738;7.998;2023-07-09T06:02:23;22.80;99.80
1453;DHT22;720;47.738;7.998;2023-07-09T06:04:49;22.90;99.80
1453;DHT22;720;47.738;7.998;2023-07-09T06:07:15;23.10;99.20
1453;DHT22;720;47.738;7.998;2023-07-09T06:09:41;23.30;99.30
1453;DHT22;720;47.738;7.998;2023-07-09T06:12:07;23.40;98.90
1453;DHT22;720;47.738;7.998;2023-07-09T06:14:33;23.50;99.20
1453;DHT22;720;47.738;7.998;2023-07-09T06:17:00;23.70;99.00
1453;DHT22;720;47.738;7.998;2023-07-09T06:19:26;24.30;98.40
1453;DHT22;720;47.738;7.998;2023-07-09T06:21:52;25.20;96.70
1453;DHT22;720;47.738;7.998;2023-07-09T06:24:18;26.70;94.60
1453;DHT22;720;47.738;7.998;2023-07-09T06:26:43;28.30;92.00
1453;DHT22;720;47.738;7.998;2023-07-09T06:29:09;30.10;89.60
1453;DHT22;720;47.738;7.998;2023-07-09T06:31:35;31.90;83.40
1453;DHT22;720;47.738;7.998;2023-07-09T06:34:03;33.60;77.80
1453;DHT22;720;47.738;7.998;2023-07-09T06:36:29;35.10;67.80
1453;DHT22;720;47.738;7.998;2023-07-09T06:38:54;36.20;61.10
1453;DHT22;720;47.738;7.998;2023-07-09T06:41:21;37.10;59.10
1453;DHT22;720;47.738;7.998;2023-07-09T06:43:46;38.10;56.40
1453;DHT22;720;47.738;7.998;2023-07-09T06:46:13;38.90;53.50
1453;DHT22;720;47.738;7.998;2023-07-09T06:48:39;39.50;50.60
1453;DHT22;720;47.738;7.998;2023-07-09T06:51:05;39.80;48.10
1453;DHT22;720;47.738;7.998;2023-07-09T06:53:31;39.60;47.00
1453;DHT22;720;47.738;7.998;2023-07-09T06:55:57;39.20;47.80
1453;DHT22;720;47.738;7.998;2023-07-09T06:58:28;38.60;49.40
1453;DHT22;720;47.738;7.998;2023-07-09T07:00:54;38.00;50.10
1453;DHT22;720;47.738;7.998;2023-07-09T07:03:21;37.70;50.40
1453;DHT22;720;47.738;7.998;2023-07-09T07:05:49;37.50;51.70
1453;DHT22;720;47.738;7.998;2023-07-09T07:08:17;37.30;51.80
1453;DHT22;720;47.738;7.998;2023-07-09T07:10:45;37.10;58.90
1453;DHT22;720;47.738;7.998;2023-07-09T07:13:12;36.80;52.00
1453;DHT22;720;47.738;7.998;2023-07-09T07:15:38;36.20;51.60
1453;DHT22;720;47.738;7.998;2023-07-09T07:18:04;35.60;53.10
1453;DHT22;720;47.738;7.998;2023-07-09T07:20:30;35.20;54.60
1453;DHT22;720;47.738;7.998;2023-07-09T07:22:56;34.80;54.10
1453;DHT22;720;47.738;7.998;2023-07-09T07:25:23;34.20;54.50
1453;DHT22;720;47.738;7.998;2023-07-09T07:27:49;33.90;57.70
1453;DHT22;720;47.738;7.998;2023-07-09T07:30:15;33.70;57.50
1453;DHT22;720;47.738;7.998;2023-07-09T07:32:47;33.30;56.80
1453;DHT22;720;47.738;7.998;2023-07-09T07:35:13;32.90;57.50
1453;DHT22;720;47.738;7.998;2023-07-09T07:37:40;32.70;59.80
1453;DHT22;720;47.738;7.998;2023-07-09T07:40:06;32.70;59.00
1453;DHT22;720;47.738;7.998;2023-07-09T07:42:32;32.80;58.50
1453;DHT22;720;47.738;7.998;2023-07-09T07:44:58;33.00;56.40
1453;DHT22;720;47.738;7.998;2023-07-09T07:47:24;33.50;56.50
1453;DHT22;720;47.738;7.998;2023-07-09T07:49:49;33.80;52.60
1453;DHT22;720;47.738;7.998;2023-07-09T07:52:15;34.70;51.80
1453;DHT22;720;47.738;7.998;2023-07-09T07:54:41;35.90;48.00
1453;DHT22;720;47.738;7.998;2023-07-09T07:57:07;37.20;45.60
1453;DHT22;720;47.738;7.998;2023-07-09T07:59:35;38.80;45.00
1453;DHT22;720;47.738;7.998;2023-07-09T08:02:02;40.00;42.30
1453;DHT22;720;47.738;7.998;2023-07-09T08:04:28;40.50;40.50
1453;DHT22;720;47.738;7.998;2023-07-09T08:06:54;40.20;38.70
1453;DHT22;720;47.738;7.998;2023-07-09T08:09:19;40.40;41.00
1453;DHT22;720;47.738;7.998;2023-07-09T08:11:45;40.80;40.10
1453;DHT22;720;47.738;7.998;2023-07-09T08:14:12;41.60;38.70
1453;DHT22;720;47.738;7.998;2023-07-09T08:16:38;42.60;37.60
1453;DHT22;720;47.738;7.998;2023-07-09T08:19:04;42.70;35.70
1453;DHT22;720;47.738;7.998;2023-07-09T08:21:30;41.80;36.60
1453;DHT22;720;47.738;7.998;2023-07-09T08:23:56;42.10;35.90
1453;DHT22;720;47.738;7.998;2023-07-09T08:26:22;42.80;37.40
1453;DHT22;720;47.738;7.998;2023-07-09T08:28:50;42.60;35.40
1453;DHT22;720;47.738;7.998;2023-07-09T08:31:16;43.10;34.70
1453;DHT22;720;47.738;7.998;2023-07-09T08:33:41;42.60;34.70
1453;DHT22;720;47.738;7.998;2023-07-09T08:36:07;42.90;35.50
1453;DHT22;720;47.738;7.998;2023-07-09T08:38:33;43.40;33.80
1453;DHT22;720;47.738;7.998;2023-07-09T08:41:09;44.10;35.60
1453;DHT22;720;47.738;7.998;2023-07-09T08:44:09;44.40;32.20
1453;DHT22;720;47.738;7.998;2023-07-09T08:47:06;43.20;32.60
1453;DHT22;720;47.738;7.998;2023-07-09T08:49:47;42.30;34.10
1453;DHT22;720;47.738;7.998;2023-07-09T08:54:51;41.60;35.60
1453;DHT22;720;47.738;7.998;2023-07-09T08:57:22;41.40;35.30
1453;DHT22;720;47.738;7.998;2023-07-09T08:59:51;40.80;35.50
1453;DHT22;720;47.738;7.998;2023-07-09T09:02:44;40.50;37.40
1453;DHT22;720;47.738;7.998;2023-07-09T09:05:14;41.10;36.40
1453;DHT22;720;47.738;7.998;2023-07-09T09:07:43;40.70;34.50
1453;DHT22;720;47.738;7.998;2023-07-09T09:10:21;40.50;35.30
1453;DHT22;720;47.738;7.998;2023-07-09T09:13:10;41.10;36.00
1453;DHT22;720;47.738;7.998;2023-07-09T09:15:39;41.50;34.80
1453;DHT22;720;47.738;7.998;2023-07-09T09:18:26;42.40;35.10
1453;DHT22;720;47.738;7.998;2023-07-09T09:20:55;42.70;32.10
1453;DHT22;720;47.738;7.998;2023-07-09T09:23:29;42.40;32.70
1453;DHT22;720;47.738;7.998;2023-07-09T09:26:00;42.10;31.20
1453;DHT22;720;47.738;7.998;2023-07-09T09:28:27;41.70;33.60
1453;DHT22;720;47.738;7.998;2023-07-09T09:30:52;42.00;32.50
1453;DHT22;720;47.738;7.998;2023-07-09T09:33:18;42.30;31.90
1453;DHT22;720;47.738;7.998;2023-07-09T09:35:45;42.30;33.20
1453;DHT22;720;47.738;7.998;2023-07-09T09:38:11;41.90;32.60
1453;DHT22;720;47.738;7.998;2023-07-09T09:40:37;41.10;33.10
1453;DHT22;720;47.738;7.998;2023-07-09T09:43:13;40.80;33.10
1453;DHT22;720;47.738;7.998;2023-07-09T09:45:40;39.90;33.80
1453;DHT22;720;47.738;7.998;2023-07-09T09:48:20;39.30;34.50
1453;DHT22;720;47.738;7.998;2023-07-09T09:50:52;39.10;34.00
1453;DHT22;720;47.738;7.998;2023-07-09T09:53:28;39.30;35.60
1453;DHT22;720;47.738;7.998;2023-07-09T09:55:56;39.50;34.80
1453;DHT22;720;47.738;7.998;2023-07-09T09:58:28;39.50;34.90
1453;DHT22;720;47.738;7.998;2023-07-09T10:00:56;39.40;36.50
1453;DHT22;720;47.738;7.998;2023-07-09T10:03:32;39.60;34.60
1453;DHT22;720;47.738;7.998;2023-07-09T10:06:46;39.70;35.90
1453;DHT22;720;47.738;7.998;2023-07-09T10:11:42;38.30;38.20
1453;DHT22;720;47.738;7.998;2023-07-09T10:16:53;38.00;37.00
1453;DHT22;720;47.738;7.998;2023-07-09T10:19:39;37.30;37.30
1453;DHT22;720;47.738;7.998;2023-07-09T10:22:13;36.70;38.40
1453;DHT22;720;47.738;7.998;2023-07-09T10:35:52;34.70;44.10
1453;DHT22;720;47.738;7.998;2023-07-09T10:40:58;34.80;41.40
1453;DHT22;720;47.738;7.998;2023-07-09T10:43:41;34.90;42.30
1453;DHT22;720;47.738;7.998;2023-07-09T10:46:16;35.30;41.20
1453;DHT22;720;47.738;7.998;2023-07-09T10:48:48;35.50;45.30
1453;DHT22;720;47.738;7.998;2023-07-09T10:53:52;35.60;40.70
1453;DHT22;720;47.738;7.998;2023-07-09T10:56:24;35.30;41.30
1453;DHT22;720;47.738;7.998;2023-07-09T11:01:38;33.60;41.90
1453;DHT22;720;47.738;7.998;2023-07-09T11:04:29;33.30;43.90
1453;DHT22;720;47.738;7.998;2023-07-09T11:06:59;33.00;42.80
1453;DHT22;720;47.738;7.998;2023-07-09T11:09:31;32.60;43.30
1453;DHT22;720;47.738;7.998;2023-07-09T11:12:05;32.40;42.80
1453;DHT22;720;47.738;7.998;2023-07-09T11:14:42;32.50;47.50
1453;DHT22;720;47.738;7.998;2023-07-09T11:17:14;32.80;45.50
1453;DHT22;720;47.738;7.998;2023-07-09T11:19:42;32.70;44.70
1453;DHT22;720;47.738;7.998;2023-07-09T11:22:17;32.30;45.60
1453;DHT22;720;47.738;7.998;2023-07-09T11:24:49;32.00;44.70
1453;DHT22;720;47.738;7.998;2023-07-09T11:27:24;32.00;46.60
1453;DHT22;720;47.738;7.998;2023-07-09T11:30:23;31.80;45.20
1453;DHT22;720;47.738;7.998;2023-07-09T11:33:04;32.00;49.10
1453;DHT22;720;47.738;7.998;2023-07-09T11:35:46;32.20;44.80
1453;DHT22;720;47.738;7.998;2023-07-09T11:38:25;32.10;43.00
1453;DHT22;720;47.738;7.998;2023-07-09T11:40:55;32.70;55.40
1453;DHT22;720;47.738;7.998;2023-07-09T11:43:32;32.80;44.20
1453;DHT22;720;47.738;7.998;2023-07-09T11:46:11;33.00;45.50
1453;DHT22;720;47.738;7.998;2023-07-09T11:48:40;33.00;45.70
1453;DHT22;720;47.738;7.998;2023-07-09T11:51:20;33.00;45.00
1453;DHT22;720;47.738;7.998;2023-07-09T11:53:51;32.80;44.30
1453;DHT22;720;47.738;7.998;2023-07-09T11:56:21;32.60;44.40
1453;DHT22;720;47.738;7.998;2023-07-09T11:58:50;32.40;45.50
1453;DHT22;720;47.738;7.998;2023-07-09T12:01:19;32.40;44.00
1453;DHT22;720;47.738;7.998;2023-07-09T12:03:47;32.40;43.40
1453;DHT22;720;47.738;7.998;2023-07-09T12:06:23;32.40;44.40
1453;DHT22;720;47.738;7.998;2023-07-09T12:08:50;32.20;45.70
1453;DHT22;720;47.738;7.998;2023-07-09T12:11:25;32.20;44.50
1453;DHT22;720;47.738;7.998;2023-07-09T12:13:52;32.20;45.10
1453;DHT22;720;47.738;7.998;2023-07-09T12:18:48;32.00;46.80
1453;DHT22;720;47.738;7.998;2023-07-09T12:21:14;32.10;45.60
1453;DHT22;720;47.738;7.998;2023-07-09T12:23:40;32.20;46.60
1453;DHT22;720;47.738;7.998;2023-07-09T12:26:06;32.00;44.80
1453;DHT22;720;47.738;7.998;2023-07-09T12:28:36;31.80;45.20
1453;DHT22;720;47.738;7.998;2023-07-09T12:31:02;32.00;46.00
1453;DHT22;720;47.738;7.998;2023-07-09T12:33:28;32.00;45.40
1453;DHT22;720;47.738;7.998;2023-07-09T12:35:59;31.90;44.40
1453;DHT22;720;47.738;7.998;2023-07-09T12:38:29;31.80;45.80
1453;DHT22;720;47.738;7.998;2023-07-09T12:40:55;31.80;44.90
1453;DHT22;720;47.738;7.998;2023-07-09T12:43:29;31.90;45.20
1453;DHT22;720;47.738;7.998;2023-07-09T12:45:58;31.90;49.10
1453;DHT22;720;47.738;7.998;2023-07-09T12:48:28;31.90;43.80
1453;DHT22;720;47.738;7.998;2023-07-09T12:50:58;31.60;43.10
1453;DHT22;720;47.738;7.998;2023-07-09T12:53:27;31.60;43.40
1453;DHT22;720;47.738;7.998;2023-07-09T12:55:58;31.70;45.20
1453;DHT22;720;47.738;7.998;2023-07-09T12:58:29;31.80;44.80
1453;DHT22;720;47.738;7.998;2023-07-09T13:00:56;31.80;43.20
1453;DHT22;720;47.738;7.998;2023-07-09T13:03:27;31.80;42.90
1453;DHT22;720;47.738;7.998;2023-07-09T13:05:54;31.80;45.40
1453;DHT22;720;47.738;7.998;2023-07-09T13:08:20;31.80;41.30
1453;DHT22;720;47.738;7.998;2023-07-09T13:10:45;31.80;50.00
1453;DHT22;720;47.738;7.998;2023-07-09T13:13:16;31.70;40.10
1453;DHT22;720;47.738;7.998;2023-07-09T13:16:06;31.70;38.70
1453;DHT22;720;47.738;7.998;2023-07-09T13:18:32;31.70;42.00
1453;DHT22;720;47.738;7.998;2023-07-09T13:20:58;31.80;41.50
1453;DHT22;720;47.738;7.998;2023-07-09T13:23:29;31.80;37.50
1453;DHT22;720;47.738;7.998;2023-07-09T13:25:57;31.80;44.90
1453;DHT22;720;47.738;7.998;2023-07-09T13:28:32;31.50;34.60
1453;DHT22;720;47.738;7.998;2023-07-09T13:31:15;31.50;35.70
1453;DHT22;720;47.738;7.998;2023-07-09T13:33:43;31.50;38.40
1453;DHT22;720;47.738;7.998;2023-07-09T13:36:09;31.40;37.10
1453;DHT22;720;47.738;7.998;2023-07-09T13:38:35;31.40;36.70
1453;DHT22;720;47.738;7.998;2023-07-09T13:41:10;31.50;41.60
1453;DHT22;720;47.738;7.998;2023-07-09T13:43:37;31.30;42.50
1453;DHT22;720;47.738;7.998;2023-07-09T13:46:06;31.30;37.20
1453;DHT22;720;47.738;7.998;2023-07-09T13:48:37;31.30;34.30
1453;DHT22;720;47.738;7.998;2023-07-09T13:51:21;31.40;34.70
1453;DHT22;720;47.738;7.998;2023-07-09T13:53:59;31.40;50.90
1453;DHT22;720;47.738;7.998;2023-07-09T13:56:28;31.20;49.80
1453;DHT22;720;47.738;7.998;2023-07-09T13:58:53;31.00;53.90
1453;DHT22;720;47.738;7.998;2023-07-09T14:01:22;30.70;55.00
1453;DHT22;720;47.738;7.998;2023-07-09T14:03:48;30.50;43.70
1453;DHT22;720;47.738;7.998;2023-07-09T14:06:15;30.40;41.00
1453;DHT22;720;47.738;7.998;2023-07-09T14:08:41;30.40;39.60
1453;DHT22;720;47.738;7.998;2023-07-09T14:11:15;30.40;47.50
1453;DHT22;720;47.738;7.998;2023-07-09T14:13:41;30.50;50.80
1453;DHT22;720;47.738;7.998;2023-07-09T14:16:10;30.40;47.90
1453;DHT22;720;47.738;7.998;2023-07-09T14:18:37;30.40;45.50
1453;DHT22;720;47.738;7.998;2023-07-09T14:21:13;30.40;47.00
1453;DHT22;720;47.738;7.998;2023-07-09T14:23:39;30.30;40.70
1453;DHT22;720;47.738;7.998;2023-07-09T14:26:04;30.30;42.80
1453;DHT22;720;47.738;7.998;2023-07-09T14:28:30;30.30;45.30
1453;DHT22;720;47.738;7.998;2023-07-09T14:30:56;30.20;50.00
1453;DHT22;720;47.738;7.998;2023-07-09T14:33:22;30.10;51.20
1453;DHT22;720;47.738;7.998;2023-07-09T14:35:49;29.90;40.10
1453;DHT22;720;47.738;7.998;2023-07-09T14:38:21;29.80;50.40
1453;DHT22;720;47.738;7.998;2023-07-09T14:40:50;29.60;57.80
1453;DHT22;720;47.738;7.998;2023-07-09T14:43:16;29.90;45.80
1453;DHT22;720;47.738;7.998;2023-07-09T14:45:42;30.00;44.90
1453;DHT22;720;47.738;7.998;2023-07-09T14:48:13;30.00;48.20
1453;DHT22;720;47.738;7.998;2023-07-09T14:50:39;29.90;50.00
1453;DHT22;720;47.738;7.998;2023-07-09T14:53:14;29.70;47.20
1453;DHT22;720;47.738;7.998;2023-07-09T14:55:40;29.70;44.10
1453;DHT22;720;47.738;7.998;2023-07-09T14:58:15;29.60;48.60
1453;DHT22;720;47.738;7.998;2023-07-09T15:00:40;29.30;57.60
1453;DHT22;720;47.738;7.998;2023-07-09T15:03:09;29.50;47.30
1453;DHT22;720;47.738;7.998;2023-07-09T15:05:35;29.50;48.90
1453;DHT22;720;47.738;7.998;2023-07-09T15:08:06;29.50;44.60
1453;DHT22;720;47.738;7.998;2023-07-09T15:10:34;29.60;62.40
1453;DHT22;720;47.738;7.998;2023-07-09T15:13:00;29.30;50.90
1453;DHT22;720;47.738;7.998;2023-07-09T15:15:30;29.10;45.60
1453;DHT22;720;47.738;7.998;2023-07-09T15:17:59;29.10;45.50
1453;DHT22;720;47.738;7.998;2023-07-09T15:20:29;29.10;47.90
1453;DHT22;720;47.738;7.998;2023-07-09T15:22:59;28.90;52.90
1453;DHT22;720;47.738;7.998;2023-07-09T15:25:27;28.70;51.90
1453;DHT22;720;47.738;7.998;2023-07-09T15:27:54;28.60;51.80
1453;DHT22;720;47.738;7.998;2023-07-09T15:30:28;28.50;50.40
1453;DHT22;720;47.738;7.998;2023-07-09T15:32:56;28.40;50.60
1453;DHT22;720;47.738;7.998;2023-07-09T15:35:23;28.30;50.50
1453;DHT22;720;47.738;7.998;2023-07-09T15:37:49;28.20;53.10
1453;DHT22;720;47.738;7.998;2023-07-09T15:40:21;28.10;51.50
1453;DHT22;720;47.738;7.998;2023-07-09T15:42:48;27.90;46.20
1453;DHT22;720;47.738;7.998;2023-07-09T15:45:15;27.90;51.40
1453;DHT22;720;47.738;7.998;2023-07-09T15:47:42;27.90;51.50
1453;DHT22;720;47.738;7.998;2023-07-09T15:50:21;27.80;52.10
1453;DHT22;720;47.738;7.998;2023-07-09T15:52:47;27.80;54.50
1453;DHT22;720;47.738;7.998;2023-07-09T15:55:18;27.60;52.90
1453;DHT22;720;47.738;7.998;2023-07-09T15:57:48;27.50;54.10
1453;DHT22;720;47.738;7.998;2023-07-09T16:00:26;27.40;53.40
1453;DHT22;720;47.738;7.998;2023-07-09T16:02:53;27.30;53.80
1453;DHT22;720;47.738;7.998;2023-07-09T16:05:27;27.20;54.10
1453;DHT22;720;47.738;7.998;2023-07-09T16:07:55;27.10;53.70
1453;DHT22;720;47.738;7.998;2023-07-09T16:10:23;27.10;53.60
1453;DHT22;720;47.738;7.998;2023-07-09T16:12:50;27.00;55.30
1453;DHT22;720;47.738;7.998;2023-07-09T16:15:20;27.00;55.40
1453;DHT22;720;47.738;7.998;2023-07-09T16:17:47;26.90;54.30
1453;DHT22;720;47.738;7.998;2023-07-09T16:20:19;26.90;53.50
1453;DHT22;720;47.738;7.998;2023-07-09T16:22:49;26.90;53.10
1453;DHT22;720;47.738;7.998;2023-07-09T16:25:32;26.90;54.70
1453;DHT22;720;47.738;7.998;2023-07-09T16:27:58;26.80;54.30
1453;DHT22;720;47.738;7.998;2023-07-09T16:30:26;26.80;53.30
1453;DHT22;720;47.738;7.998;2023-07-09T16:32:54;26.70;52.70
1453;DHT22;720;47.738;7.998;2023-07-09T16:35:21;26.80;51.80
1453;DHT22;720;47.738;7.998;2023-07-09T16:37:48;26.70;51.20
1453;DHT22;720;47.738;7.998;2023-07-09T16:40:21;26.70;50.00
1453;DHT22;720;47.738;7.998;2023-07-09T16:42:48;26.80;50.00
1453;DHT22;720;47.738;7.998;2023-07-09T16:45:16;26.80;53.50
1453;DHT22;720;47.738;7.998;2023-07-09T16:47:43;26.70;54.30
1453;DHT22;720;47.738;7.998;2023-07-09T16:50:18;26.60;55.40
1453;DHT22;720;47.738;7.998;2023-07-09T16:52:45;26.50;54.50
1453;DHT22;720;47.738;7.998;2023-07-09T16:55:26;26.40;55.30
1453;DHT22;720;47.738;7.998;2023-07-09T16:57:56;26.30;55.50
1453;DHT22;720;47.738;7.998;2023-07-09T17:02:57;26.20;57.10